sensor_id;sensor_type;location;lat;lon;timestamp;pressure;altitude;pressure_sealevel;temperature
64296;BMP280;51082;38.236;15.432;2023-08-20T00:00:31;101498.31;;;29.80
64296;BMP280;51082;38.236;15.432;2023-08-20T00:01:34;101498.63;;;29.79
64296;BMP280;51082;38.236;15.432;2023-08-20T00:02:37;101492.97;;;29.80
64296;BMP280;51082;38.236;15.432;2023-08-20T00:03:40;101490.56;;;29.79
64296;BMP280;51082;38.236;15.432;2023-08-20T00:04:43;101486.00;;;29.79
64296;BMP280;51082;38.236;15.432;2023-08-20T00:05:49;101485.22;;;29.79
64296;BMP280;51082;38.236;15.432;2023-08-20T00:06:51;101495.16;;;29.78
64296;BMP280;51082;38.236;15.432;2023-08-20T00:07:55;101476.34;;;29.78
64296;BMP280;51082;38.236;15.432;2023-08-20T00:08:56;101486.00;;;29.79
64296;BMP280;51082;38.236;15.432;2023-08-20T00:09:59;101479.84;;;29.79
64296;BMP280;51082;38.236;15.432;2023-08-20T00:11:00;101476.84;;;29.80
64296;BMP280;51082;38.236;15.432;2023-08-20T00:12:04;101475.25;;;29.79
64296;BMP280;51082;38.236;15.432;2023-08-20T00:13:06;101480.13;;;29.77
64296;BMP280;51082;38.236;15.432;2023-08-20T00:14:15;101472.88;;;29.78
64296;BMP280;51082;38.236;15.432;2023-08-20T00:15:17;101472.56;;;29.79
64296;BMP280;51082;38.236;15.432;2023-08-20T00:16:21;101468.28;;;29.78
64296;BMP280;51082;38.236;15.432;2023-08-20T00:17:23;101472.06;;;29.77
64296;BMP280;51082;38.236;15.432;2023-08-20T00:18:26;101469.72;;;29.76
64296;BMP280;51082;38.236;15.432;2023-08-20T00:19:29;101470.19;;;29.78
64296;BMP280;51082;38.236;15.432;2023-08-20T00:20:31;101470.53;;;29.76
64296;BMP280;51082;38.236;15.432;2023-08-20T00:21:34;101468.94;;;29.75
64296;BMP280;51082;38.236;15.432;2023-08-20T00:22:36;101470.53;;;29.76
64296;BMP280;51082;38.236;15.432;2023-08-20T00:23:41;101475.09;;;29.76
64296;BMP280;51082;38.236;15.432;2023-08-20T00:24:43;101468.94;;;29.75
64296;BMP280;51082;38.236;15.432;2023-08-20T00:25:46;101469.72;;;29.76
64296;BMP280;51082;38.236;15.432;2023-08-20T00:26:48;101469.41;;;29.77
64296;BMP280;51082;38.236;15.432;2023-08-20T00:27:50;101461.94;;;29.74
64296;BMP280;51082;38.236;15.432;2023-08-20T00:28:52;101466.25;;;29.75
64296;BMP280;51082;38.236;15.432;2023-08-20T00:29:54;101461.94;;;29.74
64296;BMP280;51082;38.236;15.432;2023-08-20T00:30:56;101463.56;;;29.75
64296;BMP280;51082;38.236;15.432;2023-08-20T00:31:57;101470.00;;;29.74
64296;BMP280;51082;38.236;15.432;2023-08-20T00:33:00;101467.31;;;29.74
64296;BMP280;51082;38.236;15.432;2023-08-20T00:34:01;101472.69;;;29.74
64296;BMP280;51082;38.236;15.432;2023-08-20T00:35:04;101465.75;;;29.73
64296;BMP280;51082;38.236;15.432;2023-08-20T00:36:06;101472.69;;;29.74
64296;BMP280;51082;38.236;15.432;2023-08-20T00:37:08;101481.25;;;29.76
64296;BMP280;51082;38.236;15.432;2023-08-20T00:38:09;101472.69;;;29.74
64296;BMP280;51082;38.236;15.432;2023-08-20T00:39:13;101471.91;;;29.74
64296;BMP280;51082;38.236;15.432;2023-08-20T00:40:16;101476.16;;;29.75
64296;BMP280;51082;38.236;15.432;2023-08-20T00:41:18;101473.47;;;29.75
64296;BMP280;51082;38.236;15.432;2023-08-20T00:42:20;101480.75;;;29.74
64296;BMP280;51082;38.236;15.432;2023-08-20T00:43:22;101477.28;;;29.74
64296;BMP280;51082;38.236;15.432;2023-08-20T00:44:24;101476.50;;;29.73
64296;BMP280;51082;38.236;15.432;2023-08-20T00:45:26;101483.41;;;29.74
64296;BMP280;51082;38.236;15.432;2023-08-20T00:46:29;101488.78;;;29.74
64296;BMP280;51082;38.236;15.432;2023-08-20T00:47:31;101489.91;;;29.73
64296;BMP280;51082;38.236;15.432;2023-08-20T00:48:34;101487.25;;;29.73
64296;BMP280;51082;38.236;15.432;2023-08-20T00:49:36;101483.41;;;29.74
64296;BMP280;51082;38.236;15.432;2023-08-20T00:50:39;101484.84;;;29.72
64296;BMP280;51082;38.236;15.432;2023-08-20T00:51:41;101489.91;;;29.73
64296;BMP280;51082;38.236;15.432;2023-08-20T00:52:45;101488.78;;;29.74
64296;BMP280;51082;38.236;15.432;2023-08-20T00:53:47;101488.78;;;29.74
64296;BMP280;51082;38.236;15.432;2023-08-20T00:54:51;101488.03;;;29.74
64296;BMP280;51082;38.236;15.432;2023-08-20T00:55:53;101486.63;;;29.76
64296;BMP280;51082;38.236;15.432;2023-08-20T00:56:55;101480.75;;;29.74
64296;BMP280;51082;38.236;15.432;2023-08-20T00:57:57;101483.41;;;29.74
64296;BMP280;51082;38.236;15.432;2023-08-20T00:59:00;101480.28;;;29.72
64296;BMP280;51082;38.236;15.432;2023-08-20T01:00:02;101480.28;;;29.72
64296;BMP280;51082;38.236;15.432;2023-08-20T01:01:07;101472.69;;;29.74
64296;BMP280;51082;38.236;15.432;2023-08-20T01:02:09;101471.91;;;29.74
64296;BMP280;51082;38.236;15.432;2023-08-20T01:03:10;101468.44;;;29.73
64296;BMP280;51082;38.236;15.432;2023-08-20T01:04:13;101471.13;;;29.73
64296;BMP280;51082;38.236;15.432;2023-08-20T01:05:15;101468.44;;;29.73
64296;BMP280;51082;38.236;15.432;2023-08-20T01:06:29;101465.75;;;29.73
64296;BMP280;51082;38.236;15.432;2023-08-20T01:07:43;101471.91;;;29.74
64296;BMP280;51082;38.236;15.432;2023-08-20T01:08:53;101467.31;;;29.74
64296;BMP280;51082;38.236;15.432;2023-08-20T01:10:05;101469.22;;;29.74
64296;BMP280;51082;38.236;15.432;2023-08-20T01:11:15;101470.31;;;29.73
64296;BMP280;51082;38.236;15.432;2023-08-20T01:12:19;101469.53;;;29.72
64296;BMP280;51082;38.236;15.432;2023-08-20T01:13:22;101463.38;;;29.72
64296;BMP280;51082;38.236;15.432;2023-08-20T01:14:23;101467.94;;;29.71
64296;BMP280;51082;38.236;15.432;2023-08-20T01:15:26;101462.56;;;29.71
64296;BMP280;51082;38.236;15.432;2023-08-20T01:16:27;101468.75;;;29.72
64296;BMP280;51082;38.236;15.432;2023-08-20T01:17:30;101472.56;;;29.71
64296;BMP280;51082;38.236;15.432;2023-08-20T01:18:32;101467.94;;;29.71
64296;BMP280;51082;38.236;15.432;2023-08-20T01:19:34;101467.94;;;29.71
64296;BMP280;51082;38.236;15.432;2023-08-20T01:20:54;101464.50;;;29.71
64296;BMP280;51082;38.236;15.432;2023-08-20T01:22:21;101466.06;;;29.72
64296;BMP280;51082;38.236;15.432;2023-08-20T01:23:35;101458.78;;;29.72
64296;BMP280;51082;38.236;15.432;2023-08-20T01:24:47;101458.78;;;29.72
64296;BMP280;51082;38.236;15.432;2023-08-20T01:26:08;101467.94;;;29.71
64296;BMP280;51082;38.236;15.432;2023-08-20T01:27:33;101461.81;;;29.71
64296;BMP280;51082;38.236;15.432;2023-08-20T01:28:43;101460.19;;;29.70
64296;BMP280;51082;38.236;15.432;2023-08-20T01:29:47;101458.31;;;29.70
64296;BMP280;51082;38.236;15.432;2023-08-20T01:30:49;101456.72;;;29.69
64296;BMP280;51082;38.236;15.432;2023-08-20T01:31:54;101459.41;;;29.69
64296;BMP280;51082;38.236;15.432;2023-08-20T01:32:57;101458.31;;;29.70
64296;BMP280;51082;38.236;15.432;2023-08-20T01:34:01;101458.31;;;29.70
64296;BMP280;51082;38.236;15.432;2023-08-20T01:35:03;101452.47;;;29.68
64296;BMP280;51082;38.236;15.432;2023-08-20T01:36:07;101457.84;;;29.68
64296;BMP280;51082;38.236;15.432;2023-08-20T01:37:10;101454.38;;;29.68
64296;BMP280;51082;38.236;15.432;2023-08-20T01:38:13;101454.63;;;29.66
64296;BMP280;51082;38.236;15.432;2023-08-20T01:39:14;101455.16;;;29.68
64296;BMP280;51082;38.236;15.432;2023-08-20T01:40:18;101463.22;;;29.68
64296;BMP280;51082;38.236;15.432;2023-08-20T01:41:19;101462.41;;;29.68
64296;BMP280;51082;38.236;15.432;2023-08-20T01:42:22;101459.72;;;29.68
64296;BMP280;51082;38.236;15.432;2023-08-20T01:43:23;101457.84;;;29.68
64296;BMP280;51082;38.236;15.432;2023-08-20T01:44:27;101463.22;;;29.68
64296;BMP280;51082;38.236;15.432;2023-08-20T01:45:28;101456.25;;;29.67
64296;BMP280;51082;38.236;15.432;2023-08-20T01:46:31;101460.81;;;29.67
64296;BMP280;51082;38.236;15.432;2023-08-20T01:47:33;101452.78;;;29.67
64296;BMP280;51082;38.236;15.432;2023-08-20T01:48:35;101456.25;;;29.67
64296;BMP280;51082;38.236;15.432;2023-08-20T01:49:37;101457.31;;;29.66
64296;BMP280;51082;38.236;15.432;2023-08-20T01:50:39;101452.47;;;29.68
64296;BMP280;51082;38.236;15.432;2023-08-20T01:51:41;101453.56;;;29.67
64296;BMP280;51082;38.236;15.432;2023-08-20T01:52:44;101442.34;;;29.65
64296;BMP280;51082;38.236;15.432;2023-08-20T01:53:45;101452.47;;;29.68
64296;BMP280;51082;38.236;15.432;2023-08-20T01:54:48;101449.78;;;29.68
64296;BMP280;51082;38.236;15.432;2023-08-20T01:55:50;101452.78;;;29.67
64296;BMP280;51082;38.236;15.432;2023-08-20T01:56:52;101456.25;;;29.67
64296;BMP280;51082;38.236;15.432;2023-08-20T01:57:53;101457.06;;;29.68
64296;BMP280;51082;38.236;15.432;2023-08-20T01:58:56;101456.25;;;29.67
64296;BMP280;51082;38.236;15.432;2023-08-20T01:59:59;101458.94;;;29.67
64296;BMP280;51082;38.236;15.432;2023-08-20T02:01:02;101456.25;;;29.67
64296;BMP280;51082;38.236;15.432;2023-08-20T02:02:03;101455.47;;;29.67
64296;BMP280;51082;38.236;15.432;2023-08-20T02:03:07;101456.25;;;29.67
64296;BMP280;51082;38.236;15.432;2023-08-20T02:04:08;101460.00;;;29.66
64296;BMP280;51082;38.236;15.432;2023-08-20T02:05:11;101457.31;;;29.66
64296;BMP280;51082;38.236;15.432;2023-08-20T02:06:12;101454.38;;;29.68
64296;BMP280;51082;38.236;15.432;2023-08-20T02:07:14;101453.06;;;29.65
64296;BMP280;51082;38.236;15.432;2023-08-20T02:08:16;101457.31;;;29.66
64296;BMP280;51082;38.236;15.432;2023-08-20T02:09:19;101450.09;;;29.67
64296;BMP280;51082;38.236;15.432;2023-08-20T02:10:20;101450.09;;;29.67
64296;BMP280;51082;38.236;15.432;2023-08-20T02:11:23;101465.38;;;29.66
64296;BMP280;51082;38.236;15.432;2023-08-20T02:12:25;101462.69;;;29.66
64296;BMP280;51082;38.236;15.432;2023-08-20T02:13:28;101458.44;;;29.65
64296;BMP280;51082;38.236;15.432;2023-08-20T02:14:29;101463.81;;;29.65
64296;BMP280;51082;38.236;15.432;2023-08-20T02:15:37;101462.22;;;29.64
64296;BMP280;51082;38.236;15.432;2023-08-20T02:16:38;101462.22;;;29.64
64296;BMP280;51082;38.236;15.432;2023-08-20T02:17:41;101459.53;;;29.64
64296;BMP280;51082;38.236;15.432;2023-08-20T02:18:42;101456.84;;;29.64
64296;BMP280;51082;38.236;15.432;2023-08-20T02:19:45;101458.44;;;29.65
64296;BMP280;51082;38.236;15.432;2023-08-20T02:20:46;101454.63;;;29.66
64296;BMP280;51082;38.236;15.432;2023-08-20T02:21:50;101459.53;;;29.64
64296;BMP280;51082;38.236;15.432;2023-08-20T02:22:51;101458.44;;;29.65
64296;BMP280;51082;38.236;15.432;2023-08-20T02:23:54;101456.84;;;29.64
64296;BMP280;51082;38.236;15.432;2023-08-20T02:24:55;101451.50;;;29.64
64296;BMP280;51082;38.236;15.432;2023-08-20T02:25:58;101446.91;;;29.65
64296;BMP280;51082;38.236;15.432;2023-08-20T02:26:59;101445.31;;;29.64
64296;BMP280;51082;38.236;15.432;2023-08-20T02:28:01;101450.69;;;29.64
64296;BMP280;51082;38.236;15.432;2023-08-20T02:29:03;101450.69;;;29.64
64296;BMP280;51082;38.236;15.432;2023-08-20T02:30:07;101448.81;;;29.64
64296;BMP280;51082;38.236;15.432;2023-08-20T02:31:11;101446.13;;;29.64
64296;BMP280;51082;38.236;15.432;2023-08-20T02:32:13;101444.53;;;29.63
64296;BMP280;51082;38.236;15.432;2023-08-20T02:33:15;101442.97;;;29.62
64296;BMP280;51082;38.236;15.432;2023-08-20T02:34:17;101436.47;;;29.63
64296;BMP280;51082;38.236;15.432;2023-08-20T02:35:20;101439.97;;;29.64
64296;BMP280;51082;38.236;15.432;2023-08-20T02:36:21;101434.59;;;29.64
64296;BMP280;51082;38.236;15.432;2023-08-20T02:37:24;101437.59;;;29.62
64296;BMP280;51082;38.236;15.432;2023-08-20T02:38:25;101439.16;;;29.63
64296;BMP280;51082;38.236;15.432;2023-08-20T02:39:28;101438.38;;;29.63
64296;BMP280;51082;38.236;15.432;2023-08-20T02:40:29;101433.31;;;29.61
64296;BMP280;51082;38.236;15.432;2023-08-20T02:41:32;101425.25;;;29.61
64296;BMP280;51082;38.236;15.432;2023-08-20T02:42:33;101428.72;;;29.62
64296;BMP280;51082;38.236;15.432;2023-08-20T02:43:36;101426.88;;;29.62
64296;BMP280;51082;38.236;15.432;2023-08-20T02:44:37;101430.63;;;29.61
64296;BMP280;51082;38.236;15.432;2023-08-20T02:45:40;101425.25;;;29.61
64296;BMP280;51082;38.236;15.432;2023-08-20T02:46:45;101425.25;;;29.61
64296;BMP280;51082;38.236;15.432;2023-08-20T02:47:47;101426.88;;;29.62
64296;BMP280;51082;38.236;15.432;2023-08-20T02:48:50;101423.34;;;29.62
64296;BMP280;51082;38.236;15.432;2023-08-20T02:49:51;101425.25;;;29.61
64296;BMP280;51082;38.236;15.432;2023-08-20T02:50:53;101425.25;;;29.61
64296;BMP280;51082;38.236;15.432;2023-08-20T02:51:55;101421.50;;;29.62
64296;BMP280;51082;38.236;15.432;2023-08-20T02:52:57;101426.88;;;29.62
64296;BMP280;51082;38.236;15.432;2023-08-20T02:53:59;101427.94;;;29.61
64296;BMP280;51082;38.236;15.432;2023-08-20T02:55:01;101419.88;;;29.61
64296;BMP280;51082;38.236;15.432;2023-08-20T02:56:04;101415.59;;;29.60
64296;BMP280;51082;38.236;15.432;2023-08-20T02:57:06;101418.28;;;29.60
64296;BMP280;51082;38.236;15.432;2023-08-20T02:58:09;101417.50;;;29.59
64296;BMP280;51082;38.236;15.432;2023-08-20T02:59:10;101416.72;;;29.59
64296;BMP280;51082;38.236;15.432;2023-08-20T03:00:13;101417.50;;;29.59
64296;BMP280;51082;38.236;15.432;2023-08-20T03:01:18;101406.00;;;29.59
64296;BMP280;51082;38.236;15.432;2023-08-20T03:02:22;101411.38;;;29.59
64296;BMP280;51082;38.236;15.432;2023-08-20T03:03:24;101411.38;;;29.59
64296;BMP280;51082;38.236;15.432;2023-08-20T03:04:27;101410.56;;;29.58
64296;BMP280;51082;38.236;15.432;2023-08-20T03:05:29;101411.38;;;29.59
64296;BMP280;51082;38.236;15.432;2023-08-20T03:06:32;101403.31;;;29.59
64296;BMP280;51082;38.236;15.432;2023-08-20T03:07:33;101410.56;;;29.58
64296;BMP280;51082;38.236;15.432;2023-08-20T03:08:36;101404.41;;;29.58
64296;BMP280;51082;38.236;15.432;2023-08-20T03:09:37;101406.00;;;29.59
64296;BMP280;51082;38.236;15.432;2023-08-20T03:10:40;101406.00;;;29.59
64296;BMP280;51082;38.236;15.432;2023-08-20T03:11:41;101405.19;;;29.58
64296;BMP280;51082;38.236;15.432;2023-08-20T03:12:44;101399.03;;;29.58
64296;BMP280;51082;38.236;15.432;2023-08-20T03:13:45;101404.41;;;29.58
64296;BMP280;51082;38.236;15.432;2023-08-20T03:14:48;101404.41;;;29.58
64296;BMP280;51082;38.236;15.432;2023-08-20T03:15:50;101401.72;;;29.58
64296;BMP280;51082;38.236;15.432;2023-08-20T03:16:52;101401.72;;;29.58
64296;BMP280;51082;38.236;15.432;2023-08-20T03:17:55;101399.03;;;29.58
64296;BMP280;51082;38.236;15.432;2023-08-20T03:18:58;101397.44;;;29.57
64296;BMP280;51082;38.236;15.432;2023-08-20T03:20:00;101392.06;;;29.57
64296;BMP280;51082;38.236;15.432;2023-08-20T03:21:04;101398.25;;;29.57
64296;BMP280;51082;38.236;15.432;2023-08-20T03:22:05;101397.44;;;29.57
64296;BMP280;51082;38.236;15.432;2023-08-20T03:23:08;101399.03;;;29.58
64296;BMP280;51082;38.236;15.432;2023-08-20T03:24:09;101399.03;;;29.58
64296;BMP280;51082;38.236;15.432;2023-08-20T03:25:12;101396.34;;;29.58
64296;BMP280;51082;38.236;15.432;2023-08-20T03:26:13;101399.03;;;29.58
64296;BMP280;51082;38.236;15.432;2023-08-20T03:27:16;101393.69;;;29.58
64296;BMP280;51082;38.236;15.432;2023-08-20T03:28:18;101394.75;;;29.57
64296;BMP280;51082;38.236;15.432;2023-08-20T03:29:21;101400.09;;;29.57
64296;BMP280;51082;38.236;15.432;2023-08-20T03:30:22;101404.41;;;29.58
64296;BMP280;51082;38.236;15.432;2023-08-20T03:31:25;101409.78;;;29.58
64296;BMP280;51082;38.236;15.432;2023-08-20T03:32:26;101404.41;;;29.58
64296;BMP280;51082;38.236;15.432;2023-08-20T03:33:30;101403.63;;;29.57
64296;BMP280;51082;38.236;15.432;2023-08-20T03:34:32;101407.09;;;29.58
64296;BMP280;51082;38.236;15.432;2023-08-20T03:35:34;101403.63;;;29.57
64296;BMP280;51082;38.236;15.432;2023-08-20T03:36:36;101395.25;;;29.59
64296;BMP280;51082;38.236;15.432;2023-08-20T03:37:38;101408.97;;;29.57
64296;BMP280;51082;38.236;15.432;2023-08-20T03:38:40;101400.44;;;29.55
64296;BMP280;51082;38.236;15.432;2023-08-20T03:39:42;101404.69;;;29.56
64296;BMP280;51082;38.236;15.432;2023-08-20T03:40:44;101402.00;;;29.56
64296;BMP280;51082;38.236;15.432;2023-08-20T03:41:47;101398.56;;;29.56
64296;BMP280;51082;38.236;15.432;2023-08-20T03:42:48;101395.88;;;29.56
64296;BMP280;51082;38.236;15.432;2023-08-20T03:43:51;101396.63;;;29.56
64296;BMP280;51082;38.236;15.432;2023-08-20T03:44:52;101391.25;;;29.56
64296;BMP280;51082;38.236;15.432;2023-08-20T03:45:55;101395.88;;;29.56
64296;BMP280;51082;38.236;15.432;2023-08-20T03:46:56;101388.91;;;29.55
64296;BMP280;51082;38.236;15.432;2023-08-20T03:47:59;101395.06;;;29.55
64296;BMP280;51082;38.236;15.432;2023-08-20T03:49:02;101400.44;;;29.55
64296;BMP280;51082;38.236;15.432;2023-08-20T03:50:05;101395.06;;;29.55
64296;BMP280;51082;38.236;15.432;2023-08-20T03:51:07;101394.28;;;29.55
64296;BMP280;51082;38.236;15.432;2023-08-20T03:52:09;101395.88;;;29.56
64296;BMP280;51082;38.236;15.432;2023-08-20T03:53:11;101390.50;;;29.56
64296;BMP280;51082;38.236;15.432;2023-08-20T03:54:13;101388.13;;;29.54
64296;BMP280;51082;38.236;15.432;2023-08-20T03:55:15;101388.91;;;29.55
64296;BMP280;51082;38.236;15.432;2023-08-20T03:56:17;101391.59;;;29.55
64296;BMP280;51082;38.236;15.432;2023-08-20T03:57:19;101391.59;;;29.55
64296;BMP280;51082;38.236;15.432;2023-08-20T03:58:21;101388.91;;;29.55
64296;BMP280;51082;38.236;15.432;2023-08-20T03:59:23;101389.69;;;29.55
64296;BMP280;51082;38.236;15.432;2023-08-20T04:00:24;101395.06;;;29.55
64296;BMP280;51082;38.236;15.432;2023-08-20T04:01:27;101396.97;;;29.55
64296;BMP280;51082;38.236;15.432;2023-08-20T04:02:28;101395.88;;;29.56
64296;BMP280;51082;38.236;15.432;2023-08-20T04:03:30;101402.34;;;29.55
64296;BMP280;51082;38.236;15.432;2023-08-20T04:04:33;101406.59;;;29.56
64296;BMP280;51082;38.236;15.432;2023-08-20T04:05:39;101401.22;;;29.56
64296;BMP280;51082;38.236;15.432;2023-08-20T04:06:41;101401.53;;;29.54
64296;BMP280;51082;38.236;15.432;2023-08-20T04:07:43;101400.75;;;29.54
64296;BMP280;51082;38.236;15.432;2023-08-20T04:08:44;101406.13;;;29.54
64296;BMP280;51082;38.236;15.432;2023-08-20T04:09:47;101407.22;;;29.53
64296;BMP280;51082;38.236;15.432;2023-08-20T04:10:48;101408.03;;;29.53
64296;BMP280;51082;38.236;15.432;2023-08-20T04:11:51;101411.47;;;29.54
64296;BMP280;51082;38.236;15.432;2023-08-20T04:12:52;101411.47;;;29.54
64296;BMP280;51082;38.236;15.432;2023-08-20T04:13:55;101405.00;;;29.55
64296;BMP280;51082;38.236;15.432;2023-08-20T04:14:56;101413.06;;;29.55
64296;BMP280;51082;38.236;15.432;2023-08-20T04:15:59;101411.47;;;29.54
64296;BMP280;51082;38.236;15.432;2023-08-20T04:17:00;101408.03;;;29.53
64296;BMP280;51082;38.236;15.432;2023-08-20T04:18:03;101419.53;;;29.54
64296;BMP280;51082;38.236;15.432;2023-08-20T04:19:05;101405.34;;;29.53
64296;BMP280;51082;38.236;15.432;2023-08-20T04:20:10;101407.22;;;29.53
64296;BMP280;51082;38.236;15.432;2023-08-20T04:21:11;101412.59;;;29.53
64296;BMP280;51082;38.236;15.432;2023-08-20T04:22:14;101408.03;;;29.53
64296;BMP280;51082;38.236;15.432;2023-08-20T04:23:15;101407.22;;;29.53
64296;BMP280;51082;38.236;15.432;2023-08-20T04:24:17;101405.34;;;29.53
64296;BMP280;51082;38.236;15.432;2023-08-20T04:25:19;101409.91;;;29.53
64296;BMP280;51082;38.236;15.432;2023-08-20T04:26:21;101406.13;;;29.54
64296;BMP280;51082;38.236;15.432;2023-08-20T04:27:23;101415.28;;;29.53
64296;BMP280;51082;38.236;15.432;2023-08-20T04:28:25;101413.41;;;29.53
64296;BMP280;51082;38.236;15.432;2023-08-20T04:29:27;101412.59;;;29.53
64296;BMP280;51082;38.236;15.432;2023-08-20T04:30:29;101407.50;;;29.51
64296;BMP280;51082;38.236;15.432;2023-08-20T04:31:31;101417.97;;;29.53
64296;BMP280;51082;38.236;15.432;2023-08-20T04:32:33;101405.63;;;29.52
64296;BMP280;51082;38.236;15.432;2023-08-20T04:33:35;101416.34;;;29.52
64296;BMP280;51082;38.236;15.432;2023-08-20T04:34:37;101410.97;;;29.52
64296;BMP280;51082;38.236;15.432;2023-08-20T04:35:40;101416.34;;;29.52
64296;BMP280;51082;38.236;15.432;2023-08-20T04:36:43;101420.94;;;29.51
64296;BMP280;51082;38.236;15.432;2023-08-20T04:37:44;101416.34;;;29.52
64296;BMP280;51082;38.236;15.432;2023-08-20T04:38:47;101419.03;;;29.52
64296;BMP280;51082;38.236;15.432;2023-08-20T04:39:48;101417.16;;;29.52
64296;BMP280;51082;38.236;15.432;2023-08-20T04:40:51;101419.03;;;29.52
64296;BMP280;51082;38.236;15.432;2023-08-20T04:41:52;101416.34;;;29.52
64296;BMP280;51082;38.236;15.432;2023-08-20T04:42:58;101412.59;;;29.53
64296;BMP280;51082;38.236;15.432;2023-08-20T04:43:59;101416.34;;;29.52
64296;BMP280;51082;38.236;15.432;2023-08-20T04:45:02;101407.50;;;29.51
64296;BMP280;51082;38.236;15.432;2023-08-20T04:46:03;101415.56;;;29.51
64296;BMP280;51082;38.236;15.432;2023-08-20T04:47:05;101418.25;;;29.51
64296;BMP280;51082;38.236;15.432;2023-08-20T04:48:08;101420.13;;;29.51
64296;BMP280;51082;38.236;15.432;2023-08-20T04:49:09;101418.56;;;29.50
64296;BMP280;51082;38.236;15.432;2023-08-20T04:50:12;101420.13;;;29.51
64296;BMP280;51082;38.236;15.432;2023-08-20T04:51:15;101423.94;;;29.50
64296;BMP280;51082;38.236;15.432;2023-08-20T04:52:18;101428.97;;;29.51
64296;BMP280;51082;38.236;15.432;2023-08-20T04:53:21;101422.81;;;29.51
64296;BMP280;51082;38.236;15.432;2023-08-20T04:54:23;101420.13;;;29.51
64296;BMP280;51082;38.236;15.432;2023-08-20T04:55:25;101425.50;;;29.51
64296;BMP280;51082;38.236;15.432;2023-08-20T04:56:28;101433.88;;;29.49
64296;BMP280;51082;38.236;15.432;2023-08-20T04:57:29;101424.75;;;29.50
64296;BMP280;51082;38.236;15.432;2023-08-20T04:58:31;101430.88;;;29.51
64296;BMP280;51082;38.236;15.432;2023-08-20T04:59:33;101428.50;;;29.49
64296;BMP280;51082;38.236;15.432;2023-08-20T05:00:35;101426.63;;;29.50
64296;BMP280;51082;38.236;15.432;2023-08-20T05:01:37;101434.69;;;29.50
64296;BMP280;51082;38.236;15.432;2023-08-20T05:02:40;101427.72;;;29.49
64296;BMP280;51082;38.236;15.432;2023-08-20T05:03:42;101434.97;;;29.48
64296;BMP280;51082;38.236;15.432;2023-08-20T05:04:44;101427.72;;;29.49
64296;BMP280;51082;38.236;15.432;2023-08-20T05:05:48;101432.28;;;29.48
64296;BMP280;51082;38.236;15.432;2023-08-20T05:06:53;101422.34;;;29.49
64296;BMP280;51082;38.236;15.432;2023-08-20T05:07:54;101427.72;;;29.49
64296;BMP280;51082;38.236;15.432;2023-08-20T05:08:57;101424.75;;;29.50
64296;BMP280;51082;38.236;15.432;2023-08-20T05:09:58;101430.41;;;29.49
64296;BMP280;51082;38.236;15.432;2023-08-20T05:11:00;101427.72;;;29.49
64296;BMP280;51082;38.236;15.432;2023-08-20T05:12:02;101426.09;;;29.48
64296;BMP280;51082;38.236;15.432;2023-08-20T05:13:05;101436.84;;;29.48
64296;BMP280;51082;38.236;15.432;2023-08-20T05:14:06;101438.47;;;29.49
64296;BMP280;51082;38.236;15.432;2023-08-20T05:15:09;101439.53;;;29.48
64296;BMP280;51082;38.236;15.432;2023-08-20T05:16:11;101433.09;;;29.49
64296;BMP280;51082;38.236;15.432;2023-08-20T05:17:13;101438.47;;;29.49
64296;BMP280;51082;38.236;15.432;2023-08-20T05:18:15;101441.16;;;29.49
64296;BMP280;51082;38.236;15.432;2023-08-20T05:19:17;101442.22;;;29.48
64296;BMP280;51082;38.236;15.432;2023-08-20T05:20:19;101443.81;;;29.49
64296;BMP280;51082;38.236;15.432;2023-08-20T05:21:21;101438.47;;;29.49
64296;BMP280;51082;38.236;15.432;2023-08-20T05:22:24;101447.56;;;29.48
64296;BMP280;51082;38.236;15.432;2023-08-20T05:23:27;101450.25;;;29.48
64296;BMP280;51082;38.236;15.432;2023-08-20T05:24:28;101453.78;;;29.48
64296;BMP280;51082;38.236;15.432;2023-08-20T05:25:30;101458.31;;;29.48
64296;BMP280;51082;38.236;15.432;2023-08-20T05:26:32;101456.44;;;29.48
64296;BMP280;51082;38.236;15.432;2023-08-20T05:27:34;101454.88;;;29.47
64296;BMP280;51082;38.236;15.432;2023-08-20T05:28:36;101459.13;;;29.48
64296;BMP280;51082;38.236;15.432;2023-08-20T05:29:38;101462.13;;;29.47
64296;BMP280;51082;38.236;15.432;2023-08-20T05:30:39;101462.91;;;29.47
64296;BMP280;51082;38.236;15.432;2023-08-20T05:31:42;101461.00;;;29.48
64296;BMP280;51082;38.236;15.432;2023-08-20T05:32:44;101463.69;;;29.48
64296;BMP280;51082;38.236;15.432;2023-08-20T05:33:46;101458.31;;;29.48
64296;BMP280;51082;38.236;15.432;2023-08-20T05:34:48;101452.94;;;29.48
64296;BMP280;51082;38.236;15.432;2023-08-20T05:35:50;101458.31;;;29.48
64296;BMP280;51082;38.236;15.432;2023-08-20T05:36:52;101463.69;;;29.48
64296;BMP280;51082;38.236;15.432;2023-08-20T05:37:56;101459.44;;;29.47
64296;BMP280;51082;38.236;15.432;2023-08-20T05:38:57;101458.66;;;29.46
64296;BMP280;51082;38.236;15.432;2023-08-20T05:40:00;101456.75;;;29.47
64296;BMP280;51082;38.236;15.432;2023-08-20T05:41:01;101460.53;;;29.46
64296;BMP280;51082;38.236;15.432;2023-08-20T05:42:04;101455.16;;;29.46
64296;BMP280;51082;38.236;15.432;2023-08-20T05:43:05;101455.16;;;29.46
64296;BMP280;51082;38.236;15.432;2023-08-20T05:44:09;101456.75;;;29.47
64296;BMP280;51082;38.236;15.432;2023-08-20T05:45:10;101456.75;;;29.47
64296;BMP280;51082;38.236;15.432;2023-08-20T05:46:13;101452.19;;;29.47
64296;BMP280;51082;38.236;15.432;2023-08-20T05:47:14;101454.06;;;29.47
64296;BMP280;51082;38.236;15.432;2023-08-20T05:48:17;101451.88;;;29.49
64296;BMP280;51082;38.236;15.432;2023-08-20T05:49:18;101453.78;;;29.48
64296;BMP280;51082;38.236;15.432;2023-08-20T05:50:21;101453.78;;;29.48
64296;BMP280;51082;38.236;15.432;2023-08-20T05:51:22;101452.19;;;29.47